Time;durP1;ratioP1;P1;durP2;ratioP2;P2;SDS_P1;SDS_P2;PMS_P1;PMS_P2;Temp;Humidity;BMP_temperature;BMP_pressure;BME280_temperature;BME280_humidity;BME280_pressure;Samples;Min_cycle;Max_cycle;Signal;HPM_P1;HPM_P2
2023/04/27 00:01:13;;;;;;;;;;;18.70;33.50;;;;;;5052596;28;19971;-59
2023/04/27 00:03:40;;;;;;;;;;;18.70;33.50;;;;;;5067817;28;19929;-60
2023/04/27 00:06:07;;;;;;;;;;;18.70;33.50;;;;;;5090290;28;19943;-59
2023/04/27 00:08:34;;;;;;;;;;;18.70;33.50;;;;;;5065956;28;19974;-59
2023/04/27 00:11:01;;;;;;;;;;;18.70;33.50;;;;;;5068849;28;19920;-59
2023/04/27 00:13:29;;;;;;;;;;;18.70;33.50;;;;;;5070038;28;19924;-59
2023/04/27 00:15:56;;;;;;;;;;;18.70;33.50;;;;;;5067966;28;19927;-60
2023/04/27 00:18:22;;;;;;;;;;;18.70;33.50;;;;;;5072951;28;19919;-60
2023/04/27 00:20:49;;;;;;;;;;;18.70;33.50;;;;;;5071905;28;19921;-60
2023/04/27 00:23:16;;;;;;;;;;;18.70;33.50;;;;;;5072006;28;19920;-59
2023/04/27 00:25:43;;;;;;;;;;;18.70;33.50;;;;;;5090042;28;20122;-59
2023/04/27 00:28:09;;;;;;;;;;;18.70;33.50;;;;;;5074217;28;19924;-59
2023/04/27 00:30:38;;;;;;;;;;;18.70;33.50;;;;;;5065525;28;19952;-60
2023/04/27 00:33:04;;;;;;;;;;;18.70;33.50;;;;;;5089359;28;19920;-59
2023/04/27 00:35:32;;;;;;;;;;;18.70;33.50;;;;;;5075362;28;19943;-60
2023/04/27 00:37:58;;;;;;;;;;;18.60;33.40;;;;;;5092469;28;19920;-59
2023/04/27 00:40:28;;;;;;;;;;;18.70;33.50;;;;;;5075060;28;20022;-60
2023/04/27 00:42:55;;;;;;;;;;;18.70;33.50;;;;;;5075008;28;19920;-60
2023/04/27 00:45:22;;;;;;;;;;;18.70;33.50;;;;;;5075092;28;19920;-57
2023/04/27 00:47:50;;;;;;;;;;;18.70;33.50;;;;;;5065573;28;19920;-58
2023/04/27 00:50:17;;;;;;;;;;;18.60;33.40;;;;;;5074825;28;19920;-59
2023/04/27 00:52:44;;;;;;;;;;;18.60;33.40;;;;;;5073385;28;19971;-59
2023/04/27 00:55:11;;;;;;;;;;;18.60;33.40;;;;;;5093455;28;19985;-59
2023/04/27 00:57:38;;;;;;;;;;;18.60;33.50;;;;;;5091859;28;20361;-60
2023/04/27 01:00:07;;;;;;;;;;;18.60;33.40;;;;;;5066807;28;19974;-59
2023/04/27 01:02:34;;;;;;;;;;;18.60;33.40;;;;;;5091231;28;19926;-60
2023/04/27 01:05:02;;;;;;;;;;;18.60;33.40;;;;;;5069570;28;20020;-60
2023/04/27 01:07:29;;;;;;;;;;;18.60;33.50;;;;;;5089093;28;20149;-59
2023/04/27 01:09:56;;;;;;;;;;;18.60;33.40;;;;;;5061246;28;19954;-60
2023/04/27 01:12:22;;;;;;;;;;;18.60;33.50;;;;;;5068956;28;19932;-59
2023/04/27 01:14:49;;;;;;;;;;;18.60;33.50;;;;;;5093446;28;19924;-59
2023/04/27 01:17:17;;;;;;;;;;;18.60;33.40;;;;;;5074468;28;20001;-60
2023/04/27 01:19:43;;;;;;;;;;;18.60;33.40;;;;;;5091888;28;20002;-59
2023/04/27 01:22:13;;;;;;;;;;;18.60;33.50;;;;;;5067712;28;19920;-59
2023/04/27 01:24:42;;;;;;;;;;;18.60;33.40;;;;;;5091351;28;19920;-59
2023/04/27 01:27:08;;;;;;;;;;;18.60;33.40;;;;;;5074756;28;19924;-60
2023/04/27 01:29:35;;;;;;;;;;;18.60;33.50;;;;;;5082026;28;19920;-60
2023/04/27 01:32:02;;;;;;;;;;;18.60;33.50;;;;;;5082351;28;19924;-60
2023/04/27 01:34:29;;;;;;;;;;;18.60;33.50;;;;;;5074180;28;19920;-58
2023/04/27 01:36:56;;;;;;;;;;;18.60;33.50;;;;;;5075022;28;19920;-58
2023/04/27 01:39:22;;;;;;;;;;;18.60;33.50;;;;;;5086893;28;19924;-58
2023/04/27 01:41:51;;;;;;;;;;;18.60;33.50;;;;;;5101700;28;19951;-58
2023/04/27 01:44:19;;;;;;;;;;;18.60;33.50;;;;;;5073507;28;19920;-58
2023/04/27 01:46:46;;;;;;;;;;;18.60;33.50;;;;;;5074147;28;19920;-59
2023/04/27 01:49:13;;;;;;;;;;;18.60;33.50;;;;;;5091376;28;19970;-58
2023/04/27 01:51:39;;;;;;;;;;;18.50;33.40;;;;;;5085831;28;19920;-60
2023/04/27 01:54:06;;;;;;;;;;;18.50;33.40;;;;;;5091392;28;19920;-59
2023/04/27 01:56:33;;;;;;;;;;;18.60;33.50;;;;;;5068897;28;19963;-59
2023/04/27 01:59:01;;;;;;;;;;;18.50;33.40;;;;;;5070967;28;19970;-59
2023/04/27 02:01:30;;;;;;;;;;;18.50;33.40;;;;;;5075130;28;19920;-60
2023/04/27 02:03:57;;;;;;;;;;;18.50;33.40;;;;;;5062021;28;19920;-59
2023/04/27 02:06:23;;;;;;;;;;;18.50;33.40;;;;;;5073229;28;19952;-59
2023/04/27 02:08:50;;;;;;;;;;;18.50;33.40;;;;;;5086716;28;19920;-59
2023/04/27 02:11:17;;;;;;;;;;;18.50;33.40;;;;;;5080002;28;19963;-59
2023/04/27 02:13:43;;;;;;;;;;;18.50;33.40;;;;;;5070906;28;20183;-58
2023/04/27 02:16:11;;;;;;;;;;;18.50;33.40;;;;;;5092147;28;19973;-58
2023/04/27 02:18:39;;;;;;;;;;;18.50;33.40;;;;;;5057877;28;19921;-59
2023/04/27 02:21:08;;;;;;;;;;;18.50;33.40;;;;;;5073836;28;20015;-58
2023/04/27 02:23:34;;;;;;;;;;;18.50;33.40;;;;;;5072421;28;19924;-59
2023/04/27 02:26:01;;;;;;;;;;;18.50;33.40;;;;;;5074098;28;19970;-59
2023/04/27 02:28:28;;;;;;;;;;;18.50;33.40;;;;;;5091556;28;19920;-58
2023/04/27 02:30:55;;;;;;;;;;;18.50;33.40;;;;;;5076855;28;19920;-59
2023/04/27 02:33:23;;;;;;;;;;;18.50;33.40;;;;;;5056564;28;19928;-58
2023/04/27 02:35:49;;;;;;;;;;;18.50;33.40;;;;;;5073394;28;20358;-59
2023/04/27 02:38:16;;;;;;;;;;;18.50;33.40;;;;;;5073161;28;19969;-59
2023/04/27 02:40:43;;;;;;;;;;;18.50;33.40;;;;;;5073534;28;19920;-59
2023/04/27 02:43:10;;;;;;;;;;;18.40;33.40;;;;;;5069856;28;19928;-60
2023/04/27 02:45:37;;;;;;;;;;;18.40;33.40;;;;;;5072311;28;19969;-60
2023/04/27 02:48:03;;;;;;;;;;;18.40;33.40;;;;;;5084995;28;19920;-59
2023/04/27 02:50:32;;;;;;;;;;;18.40;33.50;;;;;;5089770;28;19926;-59
2023/04/27 02:52:58;;;;;;;;;;;18.40;33.50;;;;;;5070183;28;19963;-59
2023/04/27 02:55:26;;;;;;;;;;;18.40;33.50;;;;;;5090072;28;20269;-58
2023/04/27 02:57:53;;;;;;;;;;;18.40;33.50;;;;;;5064013;28;19928;-59
2023/04/27 03:00:19;;;;;;;;;;;18.40;33.50;;;;;;5065057;28;19924;-58
2023/04/27 03:02:46;;;;;;;;;;;18.40;33.50;;;;;;5089408;28;19920;-59
2023/04/27 03:05:13;;;;;;;;;;;18.40;33.50;;;;;;5091270;28;19931;-58
2023/04/27 03:07:41;;;;;;;;;;;18.40;33.50;;;;;;5067608;28;19982;-59
2023/04/27 03:10:08;;;;;;;;;;;18.40;33.50;;;;;;5085004;28;19926;-58
2023/04/27 03:12:38;;;;;;;;;;;18.40;33.50;;;;;;5063293;28;20001;-59
2023/04/27 03:15:05;;;;;;;;;;;18.40;33.50;;;;;;5091220;28;19928;-59
2023/04/27 03:17:32;;;;;;;;;;;18.40;33.50;;;;;;5071229;28;19921;-59
2023/04/27 03:19:58;;;;;;;;;;;18.40;33.50;;;;;;5069981;28;19940;-59
2023/04/27 03:22:25;;;;;;;;;;;18.40;33.40;;;;;;5086014;28;19928;-59
2023/04/27 03:24:54;;;;;;;;;;;18.40;33.40;;;;;;5052668;28;19924;-59
2023/04/27 03:27:21;;;;;;;;;;;18.40;33.40;;;;;;5052815;28;19921;-59
2023/04/27 03:29:47;;;;;;;;;;;18.40;33.40;;;;;;5070365;28;19932;-60
2023/04/27 03:32:14;;;;;;;;;;;18.40;33.40;;;;;;5073294;28;20370;-59
2023/04/27 03:34:42;;;;;;;;;;;18.40;33.40;;;;;;5051779;28;20370;-59
2023/04/27 03:37:09;;;;;;;;;;;18.40;33.40;;;;;;5068837;28;19924;-58
2023/04/27 03:39:35;;;;;;;;;;;18.40;33.40;;;;;;5052029;28;19927;-59
2023/04/27 03:42:03;;;;;;;;;;;18.40;33.40;;;;;;5075712;28;19977;-59
2023/04/27 03:44:32;;;;;;;;;;;18.40;33.40;;;;;;5071611;28;19920;-59
2023/04/27 03:46:59;;;;;;;;;;;18.40;33.40;;;;;;5089362;28;19920;-59
2023/04/27 03:49:26;;;;;;;;;;;18.40;33.40;;;;;;5057462;28;19927;-59
2023/04/27 03:51:53;;;;;;;;;;;18.40;33.40;;;;;;5069405;28;19985;-59
2023/04/27 03:54:20;;;;;;;;;;;18.40;33.40;;;;;;5090090;28;19920;-58
2023/04/27 03:56:46;;;;;;;;;;;18.40;33.40;;;;;;5090566;28;20022;-59
2023/04/27 03:59:15;;;;;;;;;;;18.40;33.40;;;;;;5089638;28;19924;-59
2023/04/27 04:01:41;;;;;;;;;;;18.40;33.40;;;;;;5069716;28;19927;-59
2023/04/27 04:04:08;;;;;;;;;;;18.40;33.30;;;;;;5071663;28;19932;-59
2023/04/27 04:06:35;;;;;;;;;;;18.40;33.40;;;;;;5083500;28;20246;-59
2023/04/27 04:09:04;;;;;;;;;;;18.40;33.30;;;;;;5081827;28;19931;-58
2023/04/27 04:11:31;;;;;;;;;;;18.40;33.30;;;;;;5061402;28;20344;-58
2023/04/27 04:13:57;;;;;;;;;;;18.40;33.30;;;;;;5061496;28;19927;-59
2023/04/27 04:16:26;;;;;;;;;;;18.30;33.30;;;;;;5080214;28;19993;-59
2023/04/27 04:18:52;;;;;;;;;;;18.30;33.30;;;;;;5059575;28;19920;-59
2023/04/27 04:21:19;;;;;;;;;;;18.30;33.30;;;;;;5082333;28;20253;-58
2023/04/27 04:23:46;;;;;;;;;;;18.30;33.30;;;;;;5084782;28;19932;-59
2023/04/27 04:26:13;;;;;;;;;;;18.30;33.30;;;;;;5059961;28;19921;-59
2023/04/27 04:28:40;;;;;;;;;;;18.30;33.40;;;;;;5062317;28;19966;-59
2023/04/27 04:31:08;;;;;;;;;;;18.30;33.90;;;;;;5056920;28;19965;-59
2023/04/27 04:33:37;;;;;;;;;;;18.30;33.40;;;;;;5060737;28;19920;-58
2023/04/27 04:36:03;;;;;;;;;;;18.30;33.40;;;;;;5060939;28;19935;-58
2023/04/27 04:38:31;;;;;;;;;;;18.30;33.40;;;;;;5060206;28;19924;-59
2023/04/27 04:41:01;;;;;;;;;;;18.30;33.40;;;;;;5062449;28;20443;-58
2023/04/27 04:43:28;;;;;;;;;;;18.30;33.40;;;;;;5076785;28;19928;-59
2023/04/27 04:45:55;;;;;;;;;;;18.30;33.40;;;;;;5062990;28;19920;-59
2023/04/27 04:48:22;;;;;;;;;;;18.30;33.40;;;;;;5080281;28;19924;-58
2023/04/27 04:50:51;;;;;;;;;;;18.30;33.40;;;;;;5084339;28;19931;-58
2023/04/27 04:53:17;;;;;;;;;;;18.30;33.40;;;;;;5064282;28;19973;-57
2023/04/27 04:55:46;;;;;;;;;;;18.30;33.40;;;;;;5060174;28;19965;-58
2023/04/27 04:58:13;;;;;;;;;;;18.30;33.40;;;;;;5062234;28;19928;-59
2023/04/27 05:00:40;;;;;;;;;;;18.30;33.40;;;;;;5064232;28;20274;-58
2023/04/27 05:03:06;;;;;;;;;;;18.30;33.50;;;;;;5064793;28;19920;-59
2023/04/27 05:05:33;;;;;;;;;;;18.30;33.40;;;;;;5063105;28;19924;-59
2023/04/27 05:08:02;;;;;;;;;;;18.30;33.50;;;;;;5062370;28;19924;-58
2023/04/27 05:10:28;;;;;;;;;;;18.30;33.50;;;;;;5075214;28;20270;-59
2023/04/27 05:12:55;;;;;;;;;;;18.30;34.10;;;;;;5078249;28;19920;-59
2023/04/27 05:15:22;;;;;;;;;;;18.30;33.50;;;;;;5067161;28;19927;-59
2023/04/27 05:17:49;;;;;;;;;;;18.30;33.50;;;;;;5063084;28;20309;-60
2023/04/27 05:20:16;;;;;;;;;;;18.30;33.50;;;;;;5063524;28;19921;-60
2023/04/27 05:22:43;;;;;;;;;;;18.30;33.50;;;;;;5065713;28;19920;-60
2023/04/27 05:25:11;;;;;;;;;;;18.30;33.50;;;;;;5061958;28;19972;-60
2023/04/27 05:27:38;;;;;;;;;;;18.30;33.50;;;;;;5056325;28;19928;-60
2023/04/27 05:30:05;;;;;;;;;;;18.30;33.50;;;;;;5076442;28;19924;-60
2023/04/27 05:32:35;;;;;;;;;;;18.30;33.50;;;;;;5061278;28;19970;-60
2023/04/27 05:35:02;;;;;;;;;;;18.30;33.50;;;;;;5070889;28;19946;-60
2023/04/27 05:37:29;;;;;;;;;;;18.30;33.50;;;;;;5066152;28;20120;-60
2023/04/27 05:39:56;;;;;;;;;;;18.30;33.50;;;;;;5065313;28;19924;-60
2023/04/27 05:42:24;;;;;;;;;;;18.30;33.60;;;;;;5059576;28;19965;-60
2023/04/27 05:44:51;;;;;;;;;;;18.30;34.20;;;;;;5067148;28;19924;-60
2023/04/27 05:47:17;;;;;;;;;;;18.30;33.70;;;;;;5071133;28;19920;-60
2023/04/27 05:49:44;;;;;;;;;;;18.30;33.70;;;;;;5070263;28;19924;-60
2023/04/27 05:52:11;;;;;;;;;;;18.30;33.70;;;;;;5066397;28;19928;-59
2023/04/27 05:54:38;;;;;;;;;;;18.30;33.80;;;;;;5078345;28;19920;-59
2023/04/27 05:57:04;;;;;;;;;;;18.30;33.80;;;;;;5074939;28;19931;-59
2023/04/27 05:59:33;;;;;;;;;;;18.30;33.80;;;;;;5090681;28;19920;-59
2023/04/27 06:01:59;;;;;;;;;;;18.30;33.80;;;;;;5071977;28;19921;-58
2023/04/27 06:04:26;;;;;;;;;;;18.30;33.80;;;;;;5065948;28;19930;-58
2023/04/27 06:06:53;;;;;;;;;;;18.40;33.90;;;;;;5086582;28;19920;-59
2023/04/27 06:09:20;;;;;;;;;;;18.40;33.90;;;;;;5065238;28;19920;-60
2023/04/27 06:11:46;;;;;;;;;;;18.40;33.90;;;;;;5084077;28;20244;-59
2023/04/27 06:14:13;;;;;;;;;;;18.40;33.90;;;;;;5071414;28;19924;-59
2023/04/27 06:16:41;;;;;;;;;;;18.40;33.90;;;;;;5075373;28;19926;-59
2023/04/27 06:19:08;;;;;;;;;;;18.30;33.90;;;;;;5072422;28;19981;-58
2023/04/27 06:21:35;;;;;;;;;;;18.40;33.90;;;;;;5066695;28;19979;-58
2023/04/27 06:24:02;;;;;;;;;;;18.40;33.90;;;;;;5064875;28;19963;-58
2023/04/27 06:26:28;;;;;;;;;;;18.40;33.90;;;;;;5052945;28;20333;-57
2023/04/27 06:28:55;;;;;;;;;;;18.40;33.90;;;;;;5065364;28;19963;-59
2023/04/27 06:31:22;;;;;;;;;;;18.40;34.00;;;;;;5061283;28;19927;-58
2023/04/27 06:33:50;;;;;;;;;;;18.40;34.00;;;;;;5067334;28;19920;-59
2023/04/27 06:36:17;;;;;;;;;;;18.40;34.00;;;;;;5071690;28;20381;-58
2023/04/27 06:38:43;;;;;;;;;;;18.40;34.10;;;;;;5081179;28;19931;-58
2023/04/27 06:41:13;;;;;;;;;;;18.40;34.10;;;;;;5085640;28;20011;-58
2023/04/27 06:43:40;;;;;;;;;;;18.40;34.10;;;;;;5078745;28;19920;-58
2023/04/27 06:46:06;;;;;;;;;;;18.40;34.10;;;;;;5083563;28;19924;-58
2023/04/27 06:48:33;;;;;;;;;;;18.40;34.10;;;;;;5084871;28;20259;-58
2023/04/27 06:51:02;;;;;;;;;;;18.50;34.30;;;;;;5060018;28;19931;-58
2023/04/27 06:53:28;;;;;;;;;;;18.50;34.30;;;;;;5069354;28;20299;-58
2023/04/27 06:55:55;;;;;;;;;;;18.50;34.40;;;;;;5071305;28;19923;-58
2023/04/27 06:58:22;;;;;;;;;;;18.50;34.40;;;;;;5071593;28;20077;-58
2023/04/27 07:00:49;;;;;;;;;;;18.50;34.40;;;;;;5090391;28;20415;-58
2023/04/27 07:03:16;;;;;;;;;;;18.50;34.40;;;;;;5072470;28;20381;-58
2023/04/27 07:05:43;;;;;;;;;;;18.50;34.40;;;;;;5076576;28;19932;-58
2023/04/27 07:08:11;;;;;;;;;;;18.50;34.50;;;;;;5088334;28;19924;-57
2023/04/27 07:10:38;;;;;;;;;;;18.60;34.60;;;;;;5084327;28;20003;-59
2023/04/27 07:13:05;;;;;;;;;;;18.60;34.50;;;;;;5080126;28;19928;-59
2023/04/27 07:15:32;;;;;;;;;;;18.60;34.50;;;;;;5060254;28;19928;-58
2023/04/27 07:18:11;;;;;;;;;;;18.60;34.50;;;;;;5075425;28;19924;-59
2023/04/27 07:20:37;;;;;;;;;;;18.60;34.50;;;;;;5082749;28;19999;-58
2023/04/27 07:23:05;;;;;;;;;;;18.60;34.30;;;;;;5072250;28;19920;-59
2023/04/27 07:25:34;;;;;;;;;;;18.50;34.30;;;;;;5062435;28;20357;-59
2023/04/27 07:28:01;;;;;;;;;;;18.60;34.30;;;;;;5068330;28;20191;-59
2023/04/27 07:30:29;;;;;;;;;;;18.60;34.30;;;;;;5073770;28;19920;-59
2023/04/27 07:32:56;;;;;;;;;;;18.60;34.30;;;;;;5071251;28;19961;-59
2023/04/27 07:35:23;;;;;;;;;;;18.50;34.20;;;;;;5072010;28;19924;-59
2023/04/27 07:37:50;;;;;;;;;;;18.60;34.20;;;;;;5094096;28;19974;-59
2023/04/27 07:40:18;;;;;;;;;;;18.60;34.20;;;;;;5090607;28;19920;-59
2023/04/27 07:42:46;;;;;;;;;;;18.50;34.20;;;;;;5071349;28;19951;-59
2023/04/27 07:45:13;;;;;;;;;;;18.60;34.20;;;;;;5071347;28;19926;-59
2023/04/27 07:47:39;;;;;;;;;;;18.50;34.10;;;;;;5071166;28;19920;-59
2023/04/27 07:50:07;;;;;;;;;;;18.50;34.10;;;;;;5085766;28;19975;-58
2023/04/27 07:52:34;;;;;;;;;;;18.50;34.20;;;;;;5051650;28;20359;-59
2023/04/27 07:55:00;;;;;;;;;;;18.50;34.20;;;;;;5060797;28;19966;-58
2023/04/27 07:57:27;;;;;;;;;;;18.50;34.30;;;;;;5088786;28;19920;-59
2023/04/27 07:59:56;;;;;;;;;;;18.60;34.30;;;;;;5080050;28;19920;-60
2023/04/27 08:02:23;;;;;;;;;;;18.60;34.20;;;;;;5088357;28;19927;-58
2023/04/27 08:04:50;;;;;;;;;;;18.50;34.20;;;;;;5082243;28;20579;-59
2023/04/27 08:07:17;;;;;;;;;;;18.50;34.00;;;;;;5059198;28;20014;-59
2023/04/27 08:09:43;;;;;;;;;;;18.50;34.00;;;;;;5085237;28;19920;-60
2023/04/27 08:12:10;;;;;;;;;;;18.50;34.00;;;;;;5070886;28;19924;-60
2023/04/27 08:14:37;;;;;;;;;;;18.50;34.00;;;;;;5063717;28;19932;-60
2023/04/27 08:17:05;;;;;;;;;;;18.50;34.00;;;;;;5082353;28;20003;-59
2023/04/27 08:19:32;;;;;;;;;;;18.50;34.10;;;;;;5089343;28;19963;-60
2023/04/27 08:21:59;;;;;;;;;;;18.50;34.20;;;;;;5089256;28;19974;-59
2023/04/27 08:24:26;;;;;;;;;;;18.50;34.20;;;;;;5088918;28;19931;-59
2023/04/27 08:26:53;;;;;;;;;;;18.50;34.20;;;;;;5089775;28;19924;-59
2023/04/27 08:29:20;;;;;;;;;;;18.50;34.20;;;;;;5086882;28;19920;-58
2023/04/27 08:31:47;;;;;;;;;;;18.60;34.40;;;;;;5085113;28;19959;-59
2023/04/27 08:34:15;;;;;;;;;;;18.60;34.40;;;;;;5070090;28;20471;-59
2023/04/27 08:36:42;;;;;;;;;;;18.60;34.30;;;;;;5070583;28;19936;-59
2023/04/27 08:39:09;;;;;;;;;;;18.60;34.20;;;;;;5088314;28;19971;-57
2023/04/27 08:41:36;;;;;;;;;;;18.60;34.20;;;;;;5069491;28;20385;-59
2023/04/27 08:44:03;;;;;;;;;;;18.60;34.10;;;;;;5089358;28;19928;-59
2023/04/27 08:46:31;;;;;;;;;;;18.60;34.10;;;;;;5069166;28;19931;-60
2023/04/27 08:48:58;;;;;;;;;;;18.60;34.00;;;;;;5087425;28;20277;-59
2023/04/27 08:51:27;;;;;;;;;;;18.60;33.90;;;;;;5089932;28;19931;-59
2023/04/27 08:53:54;;;;;;;;;;;18.50;33.80;;;;;;5091491;28;20377;-59
2023/04/27 08:56:23;;;;;;;;;;;18.60;34.00;;;;;;5074060;28;19924;-59
2023/04/27 08:58:50;;;;;;;;;;;18.60;34.00;;;;;;5055304;28;19960;-59
2023/04/27 09:01:17;;;;;;;;;;;18.50;33.80;;;;;;5086780;28;19974;-59
2023/04/27 09:03:45;;;;;;;;;;;18.50;33.80;;;;;;5074248;28;20404;-59
2023/04/27 09:06:12;;;;;;;;;;;18.60;34.00;;;;;;5058284;28;20003;-59
2023/04/27 09:08:43;;;;;;;;;;;18.60;34.00;;;;;;5091309;28;19967;-59
2023/04/27 09:11:10;;;;;;;;;;;18.60;33.80;;;;;;5089642;28;20027;-59
2023/04/27 09:13:37;;;;;;;;;;;18.50;33.50;;;;;;5093040;28;19997;-59
2023/04/27 09:16:04;;;;;;;;;;;18.60;33.50;;;;;;5092019;28;19920;-59
2023/04/27 09:18:33;;;;;;;;;;;18.50;33.60;;;;;;5073776;28;20000;-59
2023/04/27 09:20:59;;;;;;;;;;;18.60;33.60;;;;;;5052121;28;19920;-59
2023/04/27 09:23:27;;;;;;;;;;;18.60;33.70;;;;;;5086825;28;19935;-59
2023/04/27 09:25:56;;;;;;;;;;;18.60;33.80;;;;;;5071135;28;19924;-59
2023/04/27 09:28:22;;;;;;;;;;;18.60;33.70;;;;;;5064227;28;20304;-59
2023/04/27 09:30:53;;;;;;;;;;;18.60;33.50;;;;;;5066253;28;19920;-60
2023/04/27 09:33:23;;;;;;;;;;;18.50;33.30;;;;;;5085559;28;19986;-60
2023/04/27 09:35:50;;;;;;;;;;;18.60;33.50;;;;;;5062585;28;19966;-59
2023/04/27 09:38:17;;;;;;;;;;;18.50;33.50;;;;;;5068102;28;19928;-59
2023/04/27 09:40:44;;;;;;;;;;;18.50;33.50;;;;;;5061921;28;19928;-59
2023/04/27 09:43:14;;;;;;;;;;;18.50;33.50;;;;;;5071832;28;19935;-58
2023/04/27 09:45:41;;;;;;;;;;;18.50;33.50;;;;;;5066925;28;19924;-58
2023/04/27 09:48:08;;;;;;;;;;;18.50;33.60;;;;;;5078804;28;19947;-59
2023/04/27 09:50:35;;;;;;;;;;;18.60;33.80;;;;;;5085389;28;19970;-59
2023/04/27 09:53:02;;;;;;;;;;;18.60;33.70;;;;;;5073142;28;19979;-59
2023/04/27 09:55:30;;;;;;;;;;;18.60;33.60;;;;;;5070388;28;20348;-58
2023/04/27 09:57:59;;;;;;;;;;;18.60;33.50;;;;;;5085194;28;20456;-58
2023/04/27 10:00:34;;;;;;;;;;;18.60;33.60;;;;;;5066390;28;19954;-58
2023/04/27 10:03:06;;;;;;;;;;;18.60;33.60;;;;;;5089732;28;19985;-58
2023/04/27 10:05:51;;;;;;;;;;;18.60;33.60;;;;;;5084556;28;19920;-58
2023/04/27 10:08:17;;;;;;;;;;;18.60;33.60;;;;;;5055753;28;19924;-59
2023/04/27 10:10:47;;;;;;;;;;;18.60;33.50;;;;;;5068917;28;19928;-58
2023/04/27 10:13:20;;;;;;;;;;;18.70;33.50;;;;;;5087113;28;19924;-58
2023/04/27 10:15:48;;;;;;;;;;;18.70;33.60;;;;;;5084910;28;19920;-57
2023/04/27 10:18:24;;;;;;;;;;;18.70;33.60;;;;;;5088415;28;19928;-58
2023/04/27 10:20:51;;;;;;;;;;;18.70;33.60;;;;;;5070760;28;19919;-58
2023/04/27 10:23:22;;;;;;;;;;;18.70;33.70;;;;;;5071063;28;19947;-58
2023/04/27 10:25:49;;;;;;;;;;;18.70;33.70;;;;;;5071930;28;19925;-59
2023/04/27 10:28:16;;;;;;;;;;;18.70;33.60;;;;;;5078366;28;20320;-59
2023/04/27 10:30:44;;;;;;;;;;;18.70;33.50;;;;;;5065058;28;19926;-58
2023/04/27 10:33:15;;;;;;;;;;;18.70;33.40;;;;;;5061372;28;20444;-59
2023/04/27 10:35:43;;;;;;;;;;;18.70;33.40;;;;;;5067736;28;19938;-58
2023/04/27 10:38:10;;;;;;;;;;;18.70;33.60;;;;;;5065211;28;19959;-59
2023/04/27 10:40:36;;;;;;;;;;;18.70;33.70;;;;;;5065698;28;19920;-60
2023/04/27 10:43:10;;;;;;;;;;;18.70;33.80;;;;;;5064516;28;19920;-61
2023/04/27 10:45:36;;;;;;;;;;;18.70;33.90;;;;;;5079664;28;20190;-59
2023/04/27 10:48:03;;;;;;;;;;;18.70;33.80;;;;;;5063148;28;19928;-59
2023/04/27 10:50:31;;;;;;;;;;;18.80;33.90;;;;;;5066868;28;19925;-58
2023/04/27 10:53:03;;;;;;;;;;;18.70;33.70;;;;;;5076850;28;19966;-60
2023/04/27 10:55:30;;;;;;;;;;;18.70;33.70;;;;;;5065680;28;19978;-60
2023/04/27 10:57:57;;;;;;;;;;;18.80;33.80;;;;;;5055223;28;20368;-60
2023/04/27 11:00:25;;;;;;;;;;;18.80;33.80;;;;;;5083843;28;19929;-60
2023/04/27 11:02:52;;;;;;;;;;;18.70;33.70;;;;;;5067617;28;20034;-60
2023/04/27 11:05:19;;;;;;;;;;;18.80;33.80;;;;;;5080132;28;19925;-60
2023/04/27 11:07:47;;;;;;;;;;;18.80;33.80;;;;;;5085268;28;19985;-59
2023/04/27 11:10:17;;;;;;;;;;;18.80;33.90;;;;;;5088185;28;19920;-60
2023/04/27 11:12:44;;;;;;;;;;;18.80;33.90;;;;;;5058113;28;20013;-60
2023/04/27 11:15:11;;;;;;;;;;;18.80;34.00;;;;;;5075212;28;19932;-60
2023/04/27 11:17:38;;;;;;;;;;;18.80;34.10;;;;;;5063548;28;19974;-58
2023/04/27 11:20:07;;;;;;;;;;;18.80;34.00;;;;;;5083602;28;19974;-62
2023/04/27 11:22:34;;;;;;;;;;;18.80;34.00;;;;;;5076994;28;19924;-62
2023/04/27 11:25:03;;;;;;;;;;;18.80;34.10;;;;;;5070863;28;20003;-62
2023/04/27 11:27:36;;;;;;;;;;;18.80;34.20;;;;;;5076623;28;19928;-62
2023/04/27 11:30:04;;;;;;;;;;;18.80;34.20;;;;;;5080745;28;19934;-62
2023/04/27 11:32:31;;;;;;;;;;;18.80;34.30;;;;;;5079689;28;20083;-64
2023/04/27 11:34:58;;;;;;;;;;;18.90;34.40;;;;;;5067558;28;19928;-62
2023/04/27 11:37:25;;;;;;;;;;;18.90;34.50;;;;;;5087822;28;19924;-62
2023/04/27 11:39:52;;;;;;;;;;;18.90;34.50;;;;;;5063311;28;19920;-61
2023/04/27 11:42:21;;;;;;;;;;;18.90;34.50;;;;;;5074937;28;19924;-61
2023/04/27 11:44:52;;;;;;;;;;;19.00;34.70;;;;;;5085447;28;20293;-62
2023/04/27 11:47:19;;;;;;;;;;;19.00;34.70;;;;;;5087478;28;19931;-61
2023/04/27 11:49:48;;;;;;;;;;;19.00;34.70;;;;;;5087364;28;20026;-62
2023/04/27 11:52:15;;;;;;;;;;;19.00;34.80;;;;;;5061779;28;19924;-62
2023/04/27 11:54:47;;;;;;;;;;;19.10;34.90;;;;;;5074683;28;19997;-62
2023/04/27 11:57:13;;;;;;;;;;;19.00;34.80;;;;;;5056587;28;19956;-63
2023/04/27 11:59:41;;;;;;;;;;;19.00;34.90;;;;;;5056300;28;19928;-62
2023/04/27 12:02:08;;;;;;;;;;;19.10;35.00;;;;;;5086482;28;19966;-62
2023/04/27 12:04:35;;;;;;;;;;;19.10;35.00;;;;;;5076982;28;19920;-62
2023/04/27 12:07:03;;;;;;;;;;;19.10;35.00;;;;;;5061459;28;19921;-62
2023/04/27 12:09:29;;;;;;;;;;;19.10;35.10;;;;;;5084536;28;19992;-62
2023/04/27 12:11:56;;;;;;;;;;;19.10;35.10;;;;;;5059742;28;19966;-61
2023/04/27 12:14:23;;;;;;;;;;;19.10;35.20;;;;;;5077142;28;19924;-62
2023/04/27 12:16:51;;;;;;;;;;;19.10;35.20;;;;;;5076830;28;19928;-63
2023/04/27 12:19:18;;;;;;;;;;;19.10;35.20;;;;;;5064881;28;20006;-62
2023/04/27 12:21:45;;;;;;;;;;;19.20;35.30;;;;;;5082521;28;20448;-62
2023/04/27 12:24:12;;;;;;;;;;;19.20;35.30;;;;;;5058323;28;19920;-62
2023/04/27 12:26:39;;;;;;;;;;;19.20;35.40;;;;;;5063388;28;19946;-62
2023/04/27 12:29:08;;;;;;;;;;;19.20;35.40;;;;;;5086950;28;19920;-62
2023/04/27 12:31:35;;;;;;;;;;;19.20;35.40;;;;;;5079819;28;19931;-62
2023/04/27 12:34:03;;;;;;;;;;;19.20;35.40;;;;;;5085984;28;19950;-62
2023/04/27 12:36:30;;;;;;;;;;;19.20;35.40;;;;;;5058141;28;19932;-62
2023/04/27 12:38:57;;;;;;;;;;;19.20;35.40;;;;;;5063701;28;20023;-62
2023/04/27 12:41:24;;;;;;;;;;;19.20;35.40;;;;;;5066595;28;19924;-62
2023/04/27 12:43:51;;;;;;;;;;;19.30;35.60;;;;;;5086827;28;19920;-62
2023/04/27 12:46:18;;;;;;;;;;;19.30;35.60;;;;;;5080514;28;19943;-62
2023/04/27 12:48:45;;;;;;;;;;;19.30;35.60;;;;;;5077545;28;19924;-61
2023/04/27 12:51:13;;;;;;;;;;;19.30;35.80;;;;;;5066827;28;19939;-62
2023/04/27 12:53:40;;;;;;;;;;;19.30;35.70;;;;;;5074004;28;19998;-62
2023/04/27 12:56:09;;;;;;;;;;;19.30;35.70;;;;;;5067170;28;19932;-63
2023/04/27 12:58:40;;;;;;;;;;;19.30;35.70;;;;;;5070204;28;19928;-63
2023/04/27 13:01:13;;;;;;;;;;;19.30;35.70;;;;;;5062993;28;19940;-62
2023/04/27 13:03:40;;;;;;;;;;;19.30;35.70;;;;;;5065269;28;19920;-62
2023/04/27 13:06:07;;;;;;;;;;;19.30;35.80;;;;;;5078749;28;19967;-62
2023/04/27 13:08:35;;;;;;;;;;;19.30;35.80;;;;;;5060273;28;20016;-62
2023/04/27 13:11:04;;;;;;;;;;;19.30;35.80;;;;;;5059027;28;19935;-62
2023/04/27 13:13:31;;;;;;;;;;;19.40;35.80;;;;;;5063793;28;20010;-62
2023/04/27 13:15:57;;;;;;;;;;;19.30;35.80;;;;;;5079140;28;20328;-61
2023/04/27 13:18:24;;;;;;;;;;;19.40;35.80;;;;;;5079756;28;20367;-62
2023/04/27 13:20:51;;;;;;;;;;;19.40;35.90;;;;;;5080715;28;20362;-63
2023/04/27 13:23:18;;;;;;;;;;;19.40;35.90;;;;;;5081089;28;20289;-63
2023/04/27 13:25:48;;;;;;;;;;;19.40;35.80;;;;;;5073272;28;20977;-62
2023/04/27 13:28:15;;;;;;;;;;;19.40;35.90;;;;;;5079726;28;19920;-62
2023/04/27 13:30:42;;;;;;;;;;;19.40;35.90;;;;;;5063722;28;19924;-62
2023/04/27 13:33:11;;;;;;;;;;;19.40;35.90;;;;;;5059854;28;20014;-62
2023/04/27 13:35:38;;;;;;;;;;;19.40;35.90;;;;;;5061936;28;20026;-62
2023/04/27 13:38:05;;;;;;;;;;;19.40;35.90;;;;;;5064407;28;20765;-62
2023/04/27 13:40:31;;;;;;;;;;;19.40;35.90;;;;;;5081912;28;19924;-61
2023/04/27 13:43:00;;;;;;;;;;;19.40;35.90;;;;;;5063755;28;19925;-61
2023/04/27 13:45:30;;;;;;;;;;;19.40;35.90;;;;;;5081132;28;19924;-62
2023/04/27 13:47:57;;;;;;;;;;;19.40;35.90;;;;;;5080557;28;20015;-61
2023/04/27 13:50:24;;;;;;;;;;;19.40;36.00;;;;;;5063923;28;19932;-62
2023/04/27 13:52:51;;;;;;;;;;;19.40;36.00;;;;;;5080326;28;19963;-63
2023/04/27 13:55:18;;;;;;;;;;;19.40;36.00;;;;;;5064865;28;19921;-63
2023/04/27 13:57:45;;;;;;;;;;;19.40;36.00;;;;;;5062557;28;19947;-62
2023/04/27 14:00:14;;;;;;;;;;;19.40;36.00;;;;;;5080507;28;19932;-62
2023/04/27 14:02:40;;;;;;;;;;;19.40;36.10;;;;;;5063177;28;19924;-62
2023/04/27 14:05:07;;;;;;;;;;;19.40;36.10;;;;;;5083517;28;19932;-63
2023/04/27 14:07:35;;;;;;;;;;;19.40;36.10;;;;;;5060462;28;19920;-63
2023/04/27 14:10:02;;;;;;;;;;;19.40;36.10;;;;;;5076362;28;19924;-62
2023/04/27 14:12:30;;;;;;;;;;;19.40;36.10;;;;;;5060749;28;19924;-62
2023/04/27 14:14:57;;;;;;;;;;;19.40;36.10;;;;;;5065627;28;19967;-63
2023/04/27 14:17:25;;;;;;;;;;;19.40;36.10;;;;;;5061619;28;19920;-61